Mingus, Texas
Current Conditions -  °F | °C
As of 1:15 AM on Sunday 26 Oct 2014 (Local Time) from KSEP Reporting Station
Clear Clear  
Wind Chill: 65°   Ceiling: Unl
Heat Index: 65°   Visibility: 10mi
Dew Point: 57°   Wind: 0mph
Humidity: 75%   Direction: NA
Pressure: 30.09"   Gusts: NA
Location:  32.54°N, 98.42°W
Report Text: KSEP 260615Z AUTO 00000KT 10SM CLR 19/14 A3009 RMK AO2 T01850141
Loading
Personal Weather Stations






























Interactive Weather Map
Tropical Storm Tracking
New forecast layout! Learn more

10-Day Weather Forecast

Advertisements
Track Severe Weather on mobile